Santo Anastacio, Brazil
Current Conditions -  °F | °C
As of 6:00 AM on Thursday 27 Nov 2014 (Local Time) from SBDN Reporting Station
Broken Clouds Broken Clouds  
Wind Chill: 75°   Ceiling: 5000
Heat Index: 75°   Visibility: 6mi
Dew Point: 72°   Wind: 3mph
Humidity: 89%   Direction: 270°W
Pressure: 29.83"   Gusts: NA
Location:  21.98°S, 51.66°W
Report Text: SBDN 270800Z 27003KT 9999 FEW009 BKN050 24/22 Q1010
Loading
Personal Weather Stations






























Interactive Weather Map New forecast layout! Learn more

10-Day Weather Forecast

Advertisements
Track Severe Weather on mobile